createdAt,value
2022-12-16T00:01:07.163Z,100740.69
2022-12-16T00:03:31.148Z,100740.56
2022-12-16T00:05:56.856Z,100743.16
2022-12-16T00:08:20.483Z,100742.31
2022-12-16T00:10:56.108Z,100739.69
2022-12-16T00:13:21.652Z,100748.38
2022-12-16T00:15:46.667Z,100752.88
2022-12-16T00:18:10.311Z,100754.56
2022-12-16T00:20:34.101Z,100754.50
2022-12-16T00:22:57.812Z,100748.50
2022-12-16T00:25:21.482Z,100752.94
2022-12-16T00:27:45.199Z,100752.94
2022-12-16T00:30:12.116Z,100746.06
2022-12-16T00:32:35.807Z,100749.75
2022-12-16T00:34:59.466Z,100746.97
2022-12-16T00:37:23.069Z,100752.28
2022-12-16T00:39:46.708Z,100750.50
2022-12-16T00:42:10.401Z,100753.84
2022-12-16T00:44:33.994Z,100761.69
2022-12-16T00:46:59.098Z,100761.81
2022-12-16T00:49:22.657Z,100766.16
2022-12-16T00:51:46.324Z,100761.72
2022-12-16T00:54:10.035Z,100763.56
2022-12-16T00:56:33.712Z,100768.84
2022-12-16T00:58:57.321Z,100771.38
2022-12-16T01:01:21.253Z,100767.09
2022-12-16T01:03:46.346Z,100771.50
2022-12-16T01:06:12.285Z,100768.09
2022-12-16T01:08:35.986Z,100768.91
2022-12-16T01:11:00.120Z,100775.72
2022-12-16T01:13:25.747Z,100775.88
2022-12-16T01:15:49.849Z,100779.47
2022-12-16T01:18:14.163Z,100776.78
2022-12-16T01:20:39.550Z,100781.19
2022-12-16T01:23:03.181Z,100789.06
2022-12-16T01:25:26.902Z,100793.31
2022-12-16T01:27:50.470Z,100794.19
2022-12-16T01:30:14.930Z,100788.09
2022-12-16T01:32:38.678Z,100789.81
2022-12-16T01:35:03.014Z,100791.59
2022-12-16T01:37:28.103Z,100796.88
2022-12-16T01:39:52.400Z,100794.25
2022-12-16T01:42:18.073Z,100796.03
2022-12-16T01:44:45.112Z,100789.00
2022-12-16T01:47:10.654Z,100788.31
2022-12-16T01:49:42.062Z,100785.59
2022-12-16T01:52:11.083Z,100776.91
2022-12-16T01:54:42.817Z,100784.69
2022-12-16T01:57:11.925Z,100786.47
2022-12-16T01:59:38.921Z,100783.88
2022-12-16T02:02:03.987Z,100789.06
2022-12-16T02:04:27.835Z,100783.00
2022-12-16T02:06:51.689Z,100787.44
2022-12-16T02:09:16.501Z,100786.50
2022-12-16T02:12:14.916Z,100776.94
2022-12-16T02:15:20.235Z,100773.56
2022-12-16T02:17:56.214Z,100778.72
2022-12-16T02:21:09.500Z,100773.53
2022-12-16T02:24:12.127Z,100779.66
2022-12-16T02:27:18.131Z,100784.00
2022-12-16T02:30:06.667Z,100779.59
2022-12-16T02:32:45.367Z,100778.78
2022-12-16T02:35:16.360Z,100788.31
2022-12-16T02:37:47.523Z,100771.88
2022-12-16T02:40:18.394Z,100770.09
2022-12-16T02:42:48.632Z,100777.06
2022-12-16T02:45:17.883Z,100766.53
2022-12-16T02:47:42.934Z,100763.97
2022-12-16T02:50:18.561Z,100767.41
2022-12-16T02:52:42.409Z,100763.25
2022-12-16T02:55:10.500Z,100761.56
2022-12-16T02:58:01.475Z,100765.78
2022-12-16T03:00:26.674Z,100768.47
2022-12-16T03:02:58.942Z,100771.09
2022-12-16T03:05:27.572Z,100766.66
2022-12-16T03:07:53.889Z,100764.94
2022-12-16T03:10:22.108Z,100753.69
2022-12-16T03:12:47.477Z,100758.06
2022-12-16T03:15:13.844Z,100765.06
2022-12-16T03:17:38.997Z,100763.34
2022-12-16T03:20:11.427Z,100760.72
2022-12-16T03:22:38.125Z,100765.88
2022-12-16T03:25:01.748Z,100754.59
2022-12-16T03:27:35.120Z,100752.03
2022-12-16T03:30:06.730Z,100750.31
2022-12-16T03:32:39.209Z,100755.34
2022-12-16T03:35:13.591Z,100757.97
2022-12-16T03:37:38.562Z,100755.53
2022-12-16T03:40:05.952Z,100762.41
2022-12-16T03:42:29.732Z,100760.69
2022-12-16T03:44:53.483Z,100759.03
2022-12-16T03:47:23.131Z,100759.88
2022-12-16T03:49:47.561Z,100761.53
2022-12-16T03:52:12.721Z,100757.19
2022-12-16T03:54:36.406Z,100752.84
2022-12-16T03:57:00.190Z,100754.56
2022-12-16T03:59:23.893Z,100758.97
2022-12-16T04:01:47.851Z,100753.75
2022-12-16T04:04:12.064Z,100749.50
2022-12-16T04:06:35.755Z,100756.44
2022-12-16T04:09:00.781Z,100753.84
2022-12-16T04:11:41.877Z,100754.69
2022-12-16T04:14:23.158Z,100756.38
2022-12-16T04:17:04.880Z,100759.88
2022-12-16T04:19:49.898Z,100765.13
2022-12-16T04:22:35.243Z,100759.91
2022-12-16T04:25:04.611Z,100759.03
2022-12-16T04:27:29.401Z,100765.97
2022-12-16T04:30:10.224Z,100762.59
2022-12-16T04:32:54.330Z,100763.50
2022-12-16T04:35:35.457Z,100765.97
2022-12-16T04:38:16.275Z,100764.28
2022-12-16T04:40:58.767Z,100762.59
2022-12-16T04:43:47.893Z,100755.59
2022-12-16T04:46:28.986Z,100766.97
2022-12-16T04:49:09.858Z,100769.53
2022-12-16T04:51:50.805Z,100764.34
2022-12-16T04:54:28.258Z,100776.53
2022-12-16T04:57:10.473Z,100781.75
2022-12-16T04:59:51.151Z,100788.75
2022-12-16T05:02:32.282Z,100793.94
2022-12-16T05:05:13.326Z,100790.47
2022-12-16T05:07:54.281Z,100783.50
2022-12-16T05:10:35.481Z,100783.56
2022-12-16T05:13:18.076Z,100791.41
2022-12-16T05:15:59.684Z,100787.91
2022-12-16T05:18:40.586Z,100795.72
2022-12-16T05:21:22.477Z,100800.91
2022-12-16T05:24:03.866Z,100805.31
2022-12-16T05:26:44.843Z,100806.13
2022-12-16T05:29:27.192Z,100804.44
2022-12-16T05:32:19.760Z,100813.13
2022-12-16T05:34:59.877Z,100813.06
2022-12-16T05:37:49.341Z,100816.50
2022-12-16T05:40:31.485Z,100814.81
2022-12-16T05:43:16.714Z,100805.28
2022-12-16T05:46:01.121Z,100817.44
2022-12-16T05:48:47.485Z,100827.88
2022-12-16T05:51:28.801Z,100827.00
2022-12-16T05:54:09.543Z,100824.44
2022-12-16T05:57:05.052Z,100828.75
2022-12-16T05:59:46.125Z,100830.53
2022-12-16T06:02:28.682Z,100840.00
2022-12-16T06:05:09.720Z,100844.38
2022-12-16T06:07:50.566Z,100846.16
2022-12-16T06:10:31.805Z,100853.09
2022-12-16T06:13:12.574Z,100848.75
2022-12-16T06:15:53.440Z,100856.59
2022-12-16T06:18:35.764Z,100859.19
2022-12-16T06:21:20.824Z,100863.53
2022-12-16T06:24:01.905Z,100872.22
2022-12-16T06:26:42.764Z,100883.50
2022-12-16T06:29:23.822Z,100886.13
2022-12-16T06:32:04.662Z,100893.94
2022-12-16T06:34:47.217Z,100890.47
2022-12-16T06:37:28.088Z,100900.03
2022-12-16T06:40:09.279Z,100893.06
2022-12-16T06:42:50.593Z,100893.91
2022-12-16T06:45:34.862Z,100899.16
2022-12-16T06:48:16.231Z,100906.97
2022-12-16T06:50:58.765Z,100916.53
2022-12-16T06:53:39.495Z,100921.72
2022-12-16T06:56:20.329Z,100928.69
2022-12-16T06:59:01.042Z,100928.69
2022-12-16T07:01:42.666Z,100920.00
2022-12-16T07:04:23.852Z,100925.22
2022-12-16T07:07:06.457Z,100922.59
2022-12-16T07:09:48.258Z,100927.81
2022-12-16T07:12:29.540Z,100934.78
2022-12-16T07:15:10.851Z,100939.09
2022-12-16T07:17:51.689Z,100945.19
2022-12-16T07:20:32.914Z,100938.25
2022-12-16T07:23:19.477Z,100947.78
2022-12-16T07:26:00.887Z,100946.03
2022-12-16T07:28:41.872Z,100959.97
2022-12-16T07:31:23.165Z,100964.31
2022-12-16T07:34:04.296Z,100979.94
2022-12-16T07:36:45.155Z,100986.03
2022-12-16T07:39:39.098Z,100995.56
2022-12-16T07:42:19.991Z,101001.66
2022-12-16T07:45:01.212Z,101011.22
2022-12-16T07:47:42.086Z,101004.28
2022-12-16T07:50:23.459Z,101005.16
2022-12-16T07:53:04.601Z,101008.59
2022-12-16T07:55:47.151Z,101009.44
2022-12-16T07:58:29.061Z,101013.81
2022-12-16T08:01:10.057Z,101017.28
2022-12-16T08:03:51.380Z,101015.56
2022-12-16T08:06:37.185Z,101019.03
2022-12-16T08:09:21.032Z,101025.09
2022-12-16T08:12:03.622Z,101022.47
2022-12-16T08:14:41.063Z,101023.31
2022-12-16T08:17:22.311Z,101031.16
2022-12-16T08:20:03.213Z,101032.88
2022-12-16T08:22:44.038Z,101039.81
2022-12-16T08:25:25.832Z,101051.09
2022-12-16T08:28:13.225Z,101054.53
2022-12-16T08:30:54.116Z,101043.13
2022-12-16T08:33:35.494Z,101047.50
2022-12-16T08:36:17.421Z,101056.13
2022-12-16T08:38:58.247Z,101054.34
2022-12-16T08:41:39.531Z,101051.69
2022-12-16T08:44:22.089Z,101050.78
2022-12-16T08:47:02.913Z,101056.84
2022-12-16T08:49:56.144Z,101052.38
2022-12-16T08:52:40.668Z,101057.56
2022-12-16T08:55:26.128Z,101055.66
2022-12-16T08:58:12.787Z,101048.56
2022-12-16T09:00:55.162Z,101053.63
2022-12-16T09:03:37.187Z,101053.63
2022-12-16T09:06:18.969Z,101051.75
2022-12-16T09:08:59.620Z,101054.34
2022-12-16T09:11:40.599Z,101051.63
2022-12-16T09:14:21.472Z,101057.78
2022-12-16T09:17:03.824Z,101060.19
2022-12-16T09:19:44.777Z,101058.41
2022-12-16T09:22:25.713Z,101052.06
2022-12-16T09:25:06.581Z,101071.06
2022-12-16T09:27:47.471Z,101073.41
2022-12-16T09:30:29.931Z,101070.81
2022-12-16T09:33:12.117Z,101076.59
2022-12-16T09:35:52.992Z,101081.06
2022-12-16T09:38:36.641Z,101074.16
2022-12-16T09:41:44.814Z,101087.09
2022-12-16T09:44:39.925Z,101073.72
2022-12-16T09:47:33.196Z,101083.19
2022-12-16T09:50:15.845Z,101082.84
2022-12-16T09:53:03.743Z,101085.16
2022-12-16T09:55:49.181Z,101074.59
2022-12-16T09:58:32.322Z,101079.25
2022-12-16T10:01:13.739Z,101074.66
2022-12-16T10:03:58.268Z,101072.66
2022-12-16T10:06:55.023Z,101083.75
2022-12-16T10:09:46.951Z,101065.59
2022-12-16T10:12:44.214Z,101077.38
2022-12-16T10:15:45.456Z,101072.81
2022-12-16T10:18:43.685Z,101072.84
2022-12-16T10:21:27.337Z,101079.59
2022-12-16T10:24:19.713Z,101061.91
2022-12-16T10:27:12.243Z,101067.47
2022-12-16T10:29:59.447Z,101064.31
2022-12-16T10:32:49.488Z,101066.06
2022-12-16T10:35:39.860Z,101059.69
2022-12-16T10:38:21.728Z,101066.69
2022-12-16T10:41:04.513Z,101067.44
2022-12-16T10:43:57.043Z,101070.44
2022-12-16T10:46:43.481Z,101066.16
2022-12-16T10:49:24.773Z,101077.81
2022-12-16T10:52:09.195Z,101071.22
2022-12-16T10:54:54.569Z,101082.31
2022-12-16T10:57:54.275Z,101091.34
2022-12-16T11:00:38.419Z,101087.66
2022-12-16T11:03:39.742Z,101078.75
2022-12-16T11:06:21.201Z,101078.78
2022-12-16T11:09:02.317Z,101084.88
2022-12-16T11:11:46.331Z,101081.41
2022-12-16T11:15:05.495Z,101077.81
2022-12-16T11:17:45.819Z,101080.44
2022-12-16T11:20:33.185Z,101081.47
2022-12-16T11:23:33.523Z,101074.28
2022-12-16T11:26:36.848Z,101081.94
2022-12-16T11:29:30.115Z,101075.72
2022-12-16T11:32:19.086Z,101082.72
2022-12-16T11:35:01.949Z,101088.72
2022-12-16T11:37:46.507Z,101091.06
2022-12-16T11:40:34.262Z,101090.56
2022-12-16T11:43:17.275Z,101096.88
2022-12-16T11:45:58.542Z,101103.22
2022-12-16T11:48:55.120Z,101107.94
2022-12-16T11:51:40.323Z,101105.66
2022-12-16T11:54:33.886Z,101099.19
2022-12-16T11:57:15.982Z,101108.78
2022-12-16T12:00:01.342Z,101107.31
2022-12-16T12:02:51.696Z,101110.66
2022-12-16T12:05:37.431Z,101111.38
2022-12-16T12:08:26.470Z,101109.22
2022-12-16T12:11:23.706Z,101099.94
2022-12-16T12:14:16.320Z,101109.22
2022-12-16T12:17:14.352Z,101106.75
2022-12-16T12:20:10.417Z,101109.28
2022-12-16T12:22:56.028Z,101109.22
2022-12-16T12:25:46.872Z,101115.56
2022-12-16T12:28:42.296Z,101112.81
2022-12-16T12:31:34.879Z,101109.44
2022-12-16T12:34:26.869Z,101114.78
2022-12-16T12:37:23.558Z,101117.53
2022-12-16T12:40:16.254Z,101121.13
2022-12-16T12:43:12.288Z,101123.78
2022-12-16T12:46:15.502Z,101126.16
2022-12-16T12:49:03.588Z,101135.38
2022-12-16T12:51:55.916Z,101139.66
2022-12-16T12:54:50.948Z,101120.59
2022-12-16T12:57:40.384Z,101131.31
2022-12-16T13:00:25.788Z,101125.88
2022-12-16T13:03:19.434Z,101134.44
2022-12-16T13:06:13.075Z,101135.94
2022-12-16T13:09:14.777Z,101153.19
2022-12-16T13:11:59.349Z,101146.00
2022-12-16T13:15:15.090Z,101150.94
2022-12-16T13:18:31.870Z,101157.69
2022-12-16T13:21:15.059Z,101159.69
2022-12-16T13:23:57.837Z,101164.03
2022-12-16T13:26:41.759Z,101158.78
2022-12-16T13:29:37.181Z,101163.13
2022-12-16T13:32:23.041Z,101166.09
2022-12-16T13:35:04.485Z,101167.72
2022-12-16T13:37:46.776Z,101172.34
2022-12-16T13:40:36.735Z,101173.81
2022-12-16T13:43:23.302Z,101173.88
2022-12-16T13:46:33.395Z,101180.72
2022-12-16T13:50:00.695Z,101179.63
2022-12-16T13:52:49.269Z,101182.00
2022-12-16T13:55:37.257Z,101180.47
2022-12-16T13:58:25.823Z,101186.31
2022-12-16T14:01:14.384Z,101201.47
2022-12-16T14:04:02.541Z,101201.84
2022-12-16T14:06:47.066Z,101207.19
2022-12-16T14:09:53.373Z,101208.97
2022-12-16T14:12:57.593Z,101215.94
2022-12-16T14:15:45.753Z,101230.34
2022-12-16T14:18:41.918Z,101224.19
2022-12-16T14:21:25.918Z,101235.09
2022-12-16T14:24:13.373Z,101234.81
2022-12-16T14:26:55.234Z,101240.53
2022-12-16T14:29:42.114Z,101239.03
2022-12-16T14:32:40.274Z,101237.38
2022-12-16T14:35:21.420Z,101246.00
2022-12-16T14:38:02.427Z,101249.44
2022-12-16T14:40:57.971Z,101250.66
2022-12-16T14:43:41.643Z,101255.44
2022-12-16T14:46:22.940Z,101249.25
2022-12-16T14:49:06.918Z,101248.25
2022-12-16T14:51:51.480Z,101258.78
2022-12-16T14:54:44.480Z,101259.06
2022-12-16T14:57:32.702Z,101259.88
2022-12-16T15:00:36.214Z,101263.50
2022-12-16T15:03:23.769Z,101267.38
2022-12-16T15:06:08.562Z,101267.19
2022-12-16T15:08:54.918Z,101278.66
2022-12-16T15:11:41.800Z,101279.06
2022-12-16T15:14:28.286Z,101284.03
2022-12-16T15:17:10.762Z,101285.53
2022-12-16T15:20:03.657Z,101290.28
2022-12-16T15:22:45.463Z,101291.88
2022-12-16T15:25:37.780Z,101295.50
2022-12-16T15:28:21.405Z,101291.66
2022-12-16T15:31:05.930Z,101293.94
2022-12-16T15:33:49.920Z,101287.91
2022-12-16T15:36:45.725Z,101300.13
2022-12-16T15:39:39.695Z,101297.59
2022-12-16T15:42:21.062Z,101300.31
2022-12-16T15:45:08.474Z,101306.47
2022-12-16T15:47:49.744Z,101306.56
2022-12-16T15:50:33.010Z,101319.59
2022-12-16T15:53:14.141Z,101317.59
2022-12-16T15:56:04.166Z,101326.69
2022-12-16T15:58:48.880Z,101318.28
2022-12-16T16:01:33.622Z,101329.13
2022-12-16T16:04:17.703Z,101333.25
2022-12-16T16:07:04.465Z,101332.81
2022-12-16T16:09:48.404Z,101341.41
2022-12-16T16:12:31.725Z,101345.09
2022-12-16T16:15:13.012Z,101348.28
2022-12-16T16:17:54.076Z,101343.44
2022-12-16T16:20:38.345Z,101349.72
2022-12-16T16:23:19.419Z,101353.75
2022-12-16T16:26:03.848Z,101356.63
2022-12-16T16:28:45.354Z,101351.97
2022-12-16T16:31:31.310Z,101361.22
2022-12-16T16:34:12.159Z,101371.03
2022-12-16T16:36:54.507Z,101368.81
2022-12-16T16:39:35.840Z,101378.34
2022-12-16T16:42:16.942Z,101365.19
2022-12-16T16:44:57.972Z,101375.34
2022-12-16T16:47:39.186Z,101377.31
2022-12-16T16:50:20.618Z,101380.88
2022-12-16T16:53:02.914Z,101381.41
2022-12-16T16:55:44.159Z,101382.88
2022-12-16T16:58:31.551Z,101388.63
2022-12-16T17:01:12.509Z,101390.16
2022-12-16T17:03:53.958Z,101386.69
2022-12-16T17:06:34.829Z,101384.84
2022-12-16T17:09:17.504Z,101383.56
2022-12-16T17:11:58.641Z,101387.63
2022-12-16T17:14:40.283Z,101386.56
2022-12-16T17:17:21.774Z,101391.78
2022-12-16T17:20:02.661Z,101394.28
2022-12-16T17:22:43.292Z,101390.00
2022-12-16T17:25:27.035Z,101389.69
2022-12-16T17:28:08.059Z,101392.00
2022-12-16T17:30:49.405Z,101396.06
2022-12-16T17:33:30.747Z,101401.78
2022-12-16T17:36:11.743Z,101405.78
2022-12-16T17:38:56.051Z,101405.78
2022-12-16T17:41:38.731Z,101416.09
2022-12-16T17:44:19.390Z,101416.09
2022-12-16T17:47:00.268Z,101410.91
2022-12-16T17:49:41.339Z,101410.78
2022-12-16T17:52:22.628Z,101411.50
2022-12-16T17:55:03.741Z,101417.19
2022-12-16T17:57:46.476Z,101413.50
2022-12-16T18:00:31.029Z,101415.28
2022-12-16T18:03:12.189Z,101417.94
2022-12-16T18:05:53.641Z,101423.06
2022-12-16T18:08:35.251Z,101433.41
2022-12-16T18:11:17.641Z,101440.94
2022-12-16T18:14:00.508Z,101443.31
2022-12-16T18:16:41.400Z,101453.88
2022-12-16T18:19:22.287Z,101455.44
2022-12-16T18:22:05.333Z,101459.66
2022-12-16T18:24:48.564Z,101459.44
2022-12-16T18:27:29.824Z,101449.75
2022-12-16T18:30:12.213Z,101456.13
2022-12-16T18:32:53.093Z,101451.34
2022-12-16T18:35:34.120Z,101449.41
2022-12-16T18:38:16.525Z,101455.38
2022-12-16T18:41:00.760Z,101448.56
2022-12-16T18:43:41.410Z,101451.59
2022-12-16T18:46:32.157Z,101454.75
2022-12-16T18:49:13.191Z,101457.28
2022-12-16T18:51:54.478Z,101459.78
2022-12-16T18:54:35.765Z,101463.53
2022-12-16T18:57:16.609Z,101468.94
2022-12-16T18:59:57.784Z,101480.78
2022-12-16T19:02:40.693Z,101476.22
2022-12-16T19:05:22.145Z,101476.94
2022-12-16T19:08:03.346Z,101477.91
2022-12-16T19:10:44.512Z,101481.66
2022-12-16T19:13:25.308Z,101483.84
2022-12-16T19:16:13.337Z,101491.19
2022-12-16T19:18:55.978Z,101489.34
2022-12-16T19:21:36.853Z,101490.56
2022-12-16T19:24:17.734Z,101492.94
2022-12-16T19:26:58.801Z,101498.88
2022-12-16T19:29:40.030Z,101493.97
2022-12-16T19:32:21.186Z,101506.63
2022-12-16T19:35:03.538Z,101501.03
2022-12-16T19:37:44.656Z,101506.25
2022-12-16T19:40:27.798Z,101508.25
2022-12-16T19:43:09.106Z,101518.28
2022-12-16T19:45:50.347Z,101515.34
2022-12-16T19:48:32.988Z,101520.47
2022-12-16T19:51:18.578Z,101527.91
2022-12-16T19:54:00.201Z,101531.59
2022-12-16T19:56:41.248Z,101530.66
2022-12-16T19:59:27.772Z,101531.75
2022-12-16T20:02:08.911Z,101530.06
2022-12-16T20:04:50.490Z,101533.00
2022-12-16T20:07:33.102Z,101534.88
2022-12-16T20:10:14.120Z,101539.28
2022-12-16T20:12:56.187Z,101545.25
2022-12-16T20:15:37.130Z,101539.88
2022-12-16T20:18:18.460Z,101552.56
2022-12-16T20:20:59.392Z,101548.59
2022-12-16T20:23:42.033Z,101553.16
2022-12-16T20:26:23.481Z,101552.00
2022-12-16T20:29:05.501Z,101550.91
2022-12-16T20:31:46.922Z,101570.09
2022-12-16T20:34:28.428Z,101567.25
2022-12-16T20:37:09.488Z,101572.84
2022-12-16T20:42:53.380Z,101576.50
2022-12-16T20:45:35.722Z,101582.34
2022-12-16T20:48:17.005Z,101577.25
2022-12-16T20:50:58.342Z,101580.28
2022-12-16T20:53:39.676Z,101578.75
2022-12-16T20:56:23.020Z,101578.09
2022-12-16T20:59:04.333Z,101581.72
2022-12-16T21:02:01.550Z,101591.69
2022-12-16T21:04:46.557Z,101592.97
2022-12-16T21:07:27.358Z,101593.09
2022-12-16T21:10:10.562Z,101597.09
2022-12-16T21:12:52.894Z,101598.16
2022-12-16T21:15:34.425Z,101599.91
2022-12-16T21:18:19.184Z,101617.84
2022-12-16T21:21:00.287Z,101614.56
2022-12-16T21:23:42.301Z,101613.47
2022-12-16T21:26:35.640Z,101610.75
2022-12-16T21:29:18.328Z,101616.97
2022-12-16T21:32:04.715Z,101617.31
2022-12-16T21:34:45.486Z,101630.22
2022-12-16T21:37:26.670Z,101633.78
2022-12-16T21:40:07.683Z,101629.03
2022-12-16T21:42:48.468Z,101634.75
2022-12-16T21:45:33.053Z,101638.03
2022-12-16T21:48:16.302Z,101635.22
2022-12-16T21:50:56.355Z,101646.66
2022-12-16T21:53:37.943Z,101642.22
2022-12-16T21:56:18.948Z,101644.97
2022-12-16T21:59:01.771Z,101646.72
2022-12-16T22:01:44.508Z,101655.38
2022-12-16T22:04:25.631Z,101659.81
2022-12-16T22:07:06.640Z,101647.59
2022-12-16T22:09:47.900Z,101649.91
2022-12-16T22:12:28.879Z,101651.69
2022-12-16T22:15:09.103Z,101652.78
2022-12-16T22:17:58.066Z,101650.00
2022-12-16T22:20:39.494Z,101655.28
2022-12-16T22:23:24.943Z,101657.88
2022-12-16T22:26:15.417Z,101656.66
2022-12-16T22:28:56.582Z,101657.31
2022-12-16T22:31:37.656Z,101656.44
2022-12-16T22:34:23.347Z,101665.28
2022-12-16T22:37:04.133Z,101666.78
2022-12-16T22:39:45.425Z,101664.09
2022-12-16T22:42:26.308Z,101665.09
2022-12-16T22:45:07.668Z,101674.81
2022-12-16T22:47:50.090Z,101676.56
2022-12-16T22:50:32.811Z,101676.41
2022-12-16T22:53:13.600Z,101682.78
2022-12-16T22:55:51.096Z,101686.97
2022-12-16T22:58:33.222Z,101691.44
2022-12-16T23:01:14.757Z,101695.00
2022-12-16T23:03:56.403Z,101688.63
2022-12-16T23:06:39.615Z,101698.25
2022-12-16T23:09:20.943Z,101692.38
2022-12-16T23:12:02.013Z,101694.56
2022-12-16T23:14:43.442Z,101687.16
2022-12-16T23:17:24.724Z,101692.41
2022-12-16T23:20:05.899Z,101693.66
2022-12-16T23:22:50.916Z,101690.94
2022-12-16T23:25:33.268Z,101694.28
2022-12-16T23:28:16.667Z,101688.00
2022-12-16T23:30:57.625Z,101689.56
2022-12-16T23:33:39.327Z,101693.25
2022-12-16T23:36:20.685Z,101688.81
2022-12-16T23:39:02.959Z,101688.66
2022-12-16T23:41:44.089Z,101689.94
2022-12-16T23:44:25.216Z,101691.28
2022-12-16T23:47:06.231Z,101694.50
2022-12-16T23:49:47.383Z,101697.16
2022-12-16T23:52:29.095Z,101697.56
2022-12-16T23:55:11.425Z,101702.38
2022-12-16T23:58:04.100Z,101699.69
